createdAt,value
2022-09-16T00:02:53.385Z,99050.34
2022-09-16T00:06:56.572Z,99046.97
2022-09-16T00:11:02.493Z,99051.50
2022-09-16T00:15:06.467Z,99047.19
2022-09-16T00:19:09.967Z,99052.66
2022-09-16T00:23:12.991Z,99048.41
2022-09-16T00:27:17.644Z,99041.50
2022-09-16T00:31:20.945Z,99044.28
2022-09-16T00:35:23.997Z,99052.38
2022-09-16T00:39:27.244Z,99052.63
2022-09-16T00:43:51.130Z,99056.28
2022-09-16T00:47:57.100Z,99066.22
2022-09-16T00:52:04.518Z,99072.41
2022-09-16T00:56:10.418Z,99065.59
2022-09-16T01:00:15.596Z,99064.03
2022-09-16T01:04:22.508Z,99065.81
2022-09-16T01:08:25.953Z,99061.41
2022-09-16T01:12:32.243Z,99061.41
2022-09-16T01:16:43.697Z,99073.78
2022-09-16T01:21:14.175Z,99073.69
2022-09-16T01:25:37.041Z,99058.66
2022-09-16T01:30:19.893Z,99052.41
2022-09-16T01:34:35.965Z,99055.06
2022-09-16T01:38:57.208Z,99061.31
2022-09-16T01:43:09.866Z,99050.59
2022-09-16T01:47:21.809Z,99054.06
2022-09-16T01:51:32.816Z,99065.66
2022-09-16T01:55:41.403Z,99066.66
2022-09-16T01:59:49.669Z,99070.22
2022-09-16T02:04:00.237Z,99068.50
2022-09-16T02:08:09.949Z,99058.06
2022-09-16T02:12:19.567Z,99053.69
2022-09-16T02:16:29.635Z,99043.28
2022-09-16T02:20:37.719Z,99048.78
2022-09-16T02:24:44.830Z,99043.72
2022-09-16T02:28:51.746Z,99031.44
2022-09-16T02:33:01.277Z,99030.63
2022-09-16T02:37:10.216Z,99036.88
2022-09-16T02:41:15.728Z,99044.94
2022-09-16T02:45:19.980Z,99046.66
2022-09-16T02:49:29.851Z,99048.50
2022-09-16T02:53:46.325Z,99045.84
2022-09-16T02:57:51.714Z,99036.25
2022-09-16T03:01:55.214Z,99042.47
2022-09-16T03:06:20.642Z,99043.41
2022-09-16T03:10:28.583Z,99045.13
2022-09-16T03:14:58.172Z,99050.56
2022-09-16T03:19:09.756Z,99055.88
2022-09-16T03:23:20.338Z,99049.66
2022-09-16T03:27:31.939Z,99062.19
2022-09-16T03:31:43.361Z,99062.13
2022-09-16T03:35:50.868Z,99065.59
2022-09-16T03:39:57.841Z,99069.06
2022-09-16T03:44:04.243Z,99075.19
2022-09-16T03:48:09.188Z,99060.09
2022-09-16T03:52:12.372Z,99078.84
2022-09-16T03:56:15.530Z,99065.47
2022-09-16T04:00:18.813Z,99074.28
2022-09-16T04:04:23.442Z,99060.97
2022-09-16T04:08:26.620Z,99072.44
2022-09-16T04:12:30.200Z,99059.25
2022-09-16T04:16:34.656Z,99071.59
2022-09-16T04:20:39.097Z,99087.53
2022-09-16T04:24:42.329Z,99087.53
2022-09-16T04:28:46.990Z,99084.97
2022-09-16T04:32:54.319Z,99082.44
2022-09-16T04:36:58.691Z,99076.31
2022-09-16T04:41:03.126Z,99077.25
2022-09-16T04:45:07.865Z,99067.59
2022-09-16T04:49:12.856Z,99067.59
2022-09-16T04:53:17.420Z,99065.91
2022-09-16T04:57:20.643Z,99064.09
2022-09-16T05:01:25.616Z,99043.75
2022-09-16T05:05:28.975Z,99045.53
2022-09-16T05:09:33.568Z,99042.06
2022-09-16T05:13:37.094Z,99040.16
2022-09-16T05:17:50.803Z,99029.50
2022-09-16T05:21:54.723Z,99026.78
2022-09-16T05:26:04.216Z,99033.78
2022-09-16T05:30:08.313Z,99039.03
2022-09-16T05:34:14.434Z,99039.81
2022-09-16T05:38:17.388Z,99045.97
2022-09-16T05:42:21.763Z,99043.31
2022-09-16T05:46:25.998Z,99040.47
2022-09-16T05:50:34.470Z,99046.56
2022-09-16T05:54:37.765Z,99039.41
2022-09-16T05:58:42.886Z,99025.22
2022-09-16T06:02:46.015Z,99021.53
2022-09-16T06:06:49.336Z,99027.59
2022-09-16T06:10:52.350Z,99026.56
2022-09-16T06:14:56.900Z,99025.59
2022-09-16T06:19:01.500Z,99024.69
2022-09-16T06:23:04.554Z,99014.09
2022-09-16T06:27:08.677Z,99016.75
2022-09-16T06:31:15.007Z,99035.25
2022-09-16T06:35:18.535Z,99042.09
2022-09-16T06:39:23.691Z,99058.59
2022-09-16T06:43:26.846Z,99050.47
2022-09-16T06:47:33.461Z,99052.22
2022-09-16T06:51:37.320Z,99054.69
2022-09-16T06:55:40.673Z,99067.84
2022-09-16T06:59:43.688Z,99056.06
2022-09-16T07:03:49.547Z,99060.22
2022-09-16T07:07:53.032Z,99057.13
2022-09-16T07:11:56.264Z,99046.06
2022-09-16T07:16:12.938Z,99051.09
2022-09-16T07:20:18.345Z,99056.97
2022-09-16T07:24:21.573Z,99060.09
2022-09-16T07:28:24.695Z,99055.41
2022-09-16T07:32:27.857Z,99060.50
2022-09-16T07:36:35.074Z,99066.13
2022-09-16T07:40:40.793Z,99062.03
2022-09-16T07:44:44.299Z,99053.69
2022-09-16T07:48:50.169Z,99046.19
2022-09-16T07:52:57.071Z,99055.88
2022-09-16T07:57:00.344Z,99059.31
2022-09-16T08:01:05.114Z,99068.13
2022-09-16T08:05:09.908Z,99070.72
2022-09-16T08:13:39.484Z,99073.34
2022-09-16T08:17:42.530Z,99078.66
2022-09-16T08:21:45.732Z,99076.78
2022-09-16T08:25:57.791Z,99082.69
2022-09-16T08:30:00.984Z,99077.25
2022-09-16T08:34:04.281Z,99075.81
2022-09-16T08:38:07.268Z,99052.13
2022-09-16T08:42:31.803Z,99062.66
2022-09-16T08:46:38.698Z,99060.66
2022-09-16T08:50:47.095Z,99052.13
2022-09-16T08:54:54.333Z,99041.84
2022-09-16T08:59:01.717Z,99068.13
2022-09-16T09:03:16.185Z,99069.47
2022-09-16T09:07:30.145Z,99064.00
2022-09-16T09:11:40.826Z,99071.72
2022-09-16T09:15:51.472Z,99069.59
2022-09-16T09:20:06.407Z,99081.06
2022-09-16T09:24:26.944Z,99076.47
2022-09-16T09:28:52.753Z,99066.53
2022-09-16T09:33:41.627Z,99055.03
2022-09-16T09:37:57.897Z,99053.97
2022-09-16T09:42:07.476Z,99050.09
2022-09-16T09:46:17.638Z,99042.72
2022-09-16T09:50:27.107Z,99046.19
2022-09-16T09:54:32.124Z,99039.56
2022-09-16T09:58:40.964Z,99041.00
2022-09-16T10:02:49.896Z,99049.59
2022-09-16T10:06:57.065Z,99052.13
2022-09-16T10:11:03.011Z,99044.88
2022-09-16T10:15:06.967Z,99046.72
2022-09-16T10:19:21.029Z,99049.50
2022-09-16T10:23:29.931Z,99043.44
2022-09-16T10:27:36.280Z,99039.81
2022-09-16T10:31:42.714Z,99035.44
2022-09-16T10:35:55.237Z,99039.69
2022-09-16T10:39:59.781Z,99043.31
2022-09-16T10:44:05.725Z,99039.81
2022-09-16T10:48:14.792Z,99034.66
2022-09-16T10:52:19.714Z,99031.25
2022-09-16T10:56:29.421Z,99033.22
2022-09-16T11:00:36.997Z,99023.59
2022-09-16T11:05:04.893Z,99023.66
2022-09-16T11:09:17.669Z,99018.25
2022-09-16T11:13:42.809Z,99020.00
2022-09-16T11:17:57.458Z,99024.38
2022-09-16T11:22:11.389Z,99015.56
2022-09-16T11:26:22.438Z,99014.06
2022-09-16T11:30:26.892Z,99015.00
2022-09-16T11:34:53.738Z,99016.81
2022-09-16T11:39:08.770Z,99001.88
2022-09-16T11:43:40.103Z,98994.94
2022-09-16T11:48:04.062Z,98987.16
2022-09-16T11:52:22.283Z,98973.28
2022-09-16T11:56:36.375Z,98962.47
2022-09-16T12:00:41.403Z,98948.94
2022-09-16T12:04:50.659Z,98962.59
2022-09-16T12:08:58.613Z,98965.28
2022-09-16T12:13:08.898Z,98969.53
2022-09-16T12:17:18.218Z,98951.47
2022-09-16T12:21:27.487Z,98956.81
2022-09-16T12:25:38.115Z,98944.09
2022-09-16T12:29:49.842Z,98950.88
2022-09-16T12:33:57.641Z,98943.66
2022-09-16T12:38:02.383Z,98938.88
2022-09-16T12:42:28.089Z,98927.75
2022-09-16T12:46:53.371Z,98940.72
2022-09-16T12:51:10.087Z,98937.75
2022-09-16T12:55:37.223Z,98932.47
2022-09-16T13:00:05.087Z,98919.03
2022-09-16T13:04:15.020Z,98911.78
2022-09-16T13:08:24.923Z,98896.47
2022-09-16T13:12:42.829Z,98900.72
2022-09-16T13:16:54.749Z,98913.09
2022-09-16T13:21:01.242Z,98906.63
2022-09-16T13:25:13.101Z,98899.22
2022-09-16T13:29:44.141Z,98898.22
2022-09-16T13:33:49.034Z,98896.41
2022-09-16T13:37:55.622Z,98907.41
2022-09-16T13:42:10.362Z,98905.16
2022-09-16T13:46:28.028Z,98905.59
2022-09-16T13:50:31.554Z,98904.00
2022-09-16T13:55:06.171Z,98891.75
2022-09-16T13:59:22.782Z,98883.31
2022-09-16T14:03:40.957Z,98866.66
2022-09-16T14:07:52.006Z,98875.63
2022-09-16T14:12:03.889Z,98875.63
2022-09-16T14:16:16.920Z,98886.00
2022-09-16T14:20:24.103Z,98884.09
2022-09-16T14:24:27.176Z,98889.28
2022-09-16T14:28:30.398Z,98875.16
2022-09-16T14:32:36.753Z,98873.25
2022-09-16T14:36:43.358Z,98872.34
2022-09-16T14:40:48.004Z,98872.00
2022-09-16T14:44:54.923Z,98880.91
2022-09-16T14:48:57.963Z,98883.66
2022-09-16T14:53:03.618Z,98876.63
2022-09-16T14:57:08.799Z,98863.13
2022-09-16T15:01:19.372Z,98860.22
2022-09-16T15:05:26.637Z,98847.50
2022-09-16T15:09:40.974Z,98848.56
2022-09-16T15:13:45.648Z,98837.09
2022-09-16T15:17:57.868Z,98835.22
2022-09-16T15:22:01.866Z,98831.69
2022-09-16T15:26:15.234Z,98837.88
2022-09-16T15:30:23.906Z,98833.25
2022-09-16T15:34:27.964Z,98827.13
2022-09-16T15:38:44.124Z,98830.34
2022-09-16T15:42:50.451Z,98828.31
2022-09-16T15:46:53.427Z,98837.41
2022-09-16T15:50:59.803Z,98830.56
2022-09-16T15:55:06.281Z,98835.22
2022-09-16T15:59:26.339Z,98831.63
2022-09-16T16:03:35.496Z,98835.22
2022-09-16T16:07:44.134Z,98842.31
2022-09-16T16:11:47.271Z,98832.31
2022-09-16T16:15:52.358Z,98841.41
2022-09-16T16:19:57.710Z,98832.47
2022-09-16T16:24:00.810Z,98836.97
2022-09-16T16:28:03.897Z,98830.81
2022-09-16T16:32:10.461Z,98838.03
2022-09-16T16:36:15.700Z,98835.38
2022-09-16T16:40:18.786Z,98831.97
2022-09-16T16:44:23.181Z,98838.28
2022-09-16T16:48:28.974Z,98828.59
2022-09-16T16:52:32.198Z,98835.13
2022-09-16T16:56:35.493Z,98838.34
2022-09-16T17:00:39.944Z,98849.31
2022-09-16T17:04:44.424Z,98863.75
2022-09-16T17:08:47.762Z,98863.38
2022-09-16T17:12:51.039Z,98860.44
2022-09-16T17:16:54.996Z,98866.28
2022-09-16T17:21:04.687Z,98864.03
2022-09-16T17:25:08.076Z,98865.13
2022-09-16T17:29:15.710Z,98852.69
2022-09-16T17:33:19.313Z,98859.06
2022-09-16T17:37:23.851Z,98873.38
2022-09-16T17:41:28.108Z,98889.41
2022-09-16T17:45:33.835Z,98886.88
2022-09-16T17:49:36.858Z,98896.91
2022-09-16T17:53:41.718Z,98914.19
2022-09-16T17:57:44.732Z,98904.94
2022-09-16T18:01:48.625Z,98911.31
2022-09-16T18:05:53.452Z,98916.00
2022-09-16T18:09:58.282Z,98920.78
2022-09-16T18:14:03.248Z,98924.81
2022-09-16T18:18:07.155Z,98925.22
2022-09-16T18:22:10.125Z,98880.25
2022-09-16T18:26:15.864Z,98891.13
2022-09-16T18:30:19.128Z,98903.56
2022-09-16T18:34:23.883Z,98898.50
2022-09-16T18:38:27.563Z,98907.53
2022-09-16T18:42:32.122Z,98901.47
2022-09-16T18:46:36.991Z,98906.84
2022-09-16T18:50:40.040Z,98916.03
2022-09-16T18:54:46.818Z,98927.88
2022-09-16T18:59:17.302Z,98934.56
2022-09-16T19:03:16.334Z,98949.16
2022-09-16T19:07:19.488Z,98952.22
2022-09-16T19:11:23.055Z,98957.25
2022-09-16T19:15:27.648Z,98974.66
2022-09-16T19:19:31.351Z,98977.84
2022-09-16T19:23:34.515Z,98979.19
2022-09-16T19:27:39.171Z,98993.78
2022-09-16T19:31:45.184Z,99002.00
2022-09-16T19:35:48.450Z,99008.56
2022-09-16T19:39:51.898Z,99002.75
2022-09-16T19:43:55.987Z,98998.53
2022-09-16T19:48:00.913Z,98999.78
2022-09-16T19:52:04.076Z,99028.63
2022-09-16T19:56:09.682Z,99028.03
2022-09-16T20:00:16.974Z,99032.00
2022-09-16T20:04:21.552Z,99037.59
2022-09-16T20:08:24.787Z,99041.53
2022-09-16T20:12:28.154Z,99034.69
2022-09-16T20:16:35.904Z,99041.06
2022-09-16T20:20:40.510Z,99042.97
2022-09-16T20:24:43.954Z,99044.03
2022-09-16T20:28:50.205Z,99047.66
2022-09-16T20:32:53.455Z,99058.41
2022-09-16T20:36:57.964Z,99071.75
2022-09-16T20:41:06.063Z,99056.84
2022-09-16T20:45:11.119Z,99053.34
2022-09-16T20:49:16.039Z,99059.69
2022-09-16T20:53:20.463Z,99058.00
2022-09-16T20:57:23.680Z,99064.28
2022-09-16T21:01:28.817Z,99072.41
2022-09-16T21:05:31.936Z,99078.59
2022-09-16T21:09:36.445Z,99070.56
2022-09-16T21:13:41.363Z,99064.44
2022-09-16T21:17:44.597Z,99055.63
2022-09-16T21:21:48.635Z,99062.66
2022-09-16T21:25:53.051Z,99067.16
2022-09-16T21:29:56.071Z,99059.22
2022-09-16T21:33:59.395Z,99061.94
2022-09-16T21:38:02.791Z,99070.88
2022-09-16T21:42:07.546Z,99078.84
2022-09-16T21:46:12.398Z,99071.81
2022-09-16T21:50:15.978Z,99085.88
2022-09-16T21:54:20.394Z,99102.69
2022-09-16T21:58:25.741Z,99102.75
2022-09-16T22:02:31.209Z,99098.50
2022-09-16T22:06:34.999Z,99084.31
2022-09-16T22:10:39.192Z,99066.56
2022-09-16T22:14:43.739Z,99060.50
2022-09-16T22:18:46.971Z,99056.00
2022-09-16T22:22:50.370Z,99059.56
2022-09-16T22:26:53.848Z,99049.81
2022-09-16T22:31:08.184Z,99049.03
2022-09-16T22:35:11.307Z,99047.28
2022-09-16T22:39:16.073Z,99045.50
2022-09-16T22:43:19.290Z,99044.47
2022-09-16T22:47:23.624Z,99047.09
2022-09-16T22:51:27.891Z,99039.13
2022-09-16T22:55:31.130Z,99039.94
2022-09-16T22:59:34.510Z,99042.56
2022-09-16T23:03:39.861Z,99047.00
2022-09-16T23:07:43.219Z,99038.09
2022-09-16T23:11:46.220Z,99038.88
2022-09-16T23:15:53.597Z,99025.59
2022-09-16T23:19:58.383Z,99022.19
2022-09-16T23:24:03.190Z,99017.72
2022-09-16T23:28:06.659Z,99023.06
2022-09-16T23:32:09.692Z,99038.34
2022-09-16T23:36:17.186Z,99027.84
2022-09-16T23:40:20.538Z,99027.97
2022-09-16T23:44:25.641Z,99012.97
2022-09-16T23:48:28.854Z,99007.75
2022-09-16T23:52:33.202Z,99005.13
2022-09-16T23:56:36.277Z,98993.50
